Rio Congue — D6FN6 — position and weather

sailwx.info

Track history (hours):
 
Tides and Currents Weather Stations Pressure Air Temp Water Temp Dewpoint Dewpoint Depression Visibility Wind Speed Wind Dir Waves Ship Positions

Rio Congue

Last reported at 2018-Mar-30 04:57 UTC. Time now 2018-Apr-26 23:07 UTC.
Position N 07°54' W 015°06'.
Warning: this ship's position is 27 days out of date.

Length 135 m; draft 7.2 m.

Type: Cargo ship. MMSI: 616905000.

Date/timePositionNaut miles runAvg speedWind from/ knotsBaromVisibWave heightAir tempDewpointWater temp
2018-Mar-30 04:57N 07°54' W 015°06'4 9.2
2018-Mar-30 04:30N 07°56' W 015°09'5 9.1
2018-Mar-30 04:00N 07°59' W 015°13'6 9.1
2018-Mar-30 03:23N 08°02' W 015°18'4 9.4
2018-Mar-30 03:00N 08°04' W 015°21'5 9.3
2018-Mar-30 02:30N 08°06' W 015°25'13 9.0
2018-Mar-30 01:04N 08°14' W 015°36'1 8.7
2018-Mar-30 00:58N 08°14' W 015°37'21 9.2
2018-Mar-29 22:43N 08°25' W 015°54'3 9.3
2018-Mar-29 22:26N 08°27' W 015°56'4 9.2
2018-Mar-29 21:58N 08°29' W 015°60'4 9.1
2018-Mar-29 21:30N 08°32' W 016°03'4 8.9
2018-Mar-29 21:00N 08°34' W 016°07'5 9.1
2018-Mar-29 20:30N 08°36' W 016°11'5 9.1
2018-Mar-29 20:00N 08°39' W 016°15'5 9.4
2018-Mar-29 19:30N 08°41' W 016°19'5 9.4
2018-Mar-29 19:00N 08°44' W 016°23'5 9.5
2018-Mar-29 18:30N 08°47' W 016°27'5 9.4
2018-Mar-29 18:00N 08°50' W 016°31'5 9.3
2018-Mar-29 17:30N 08°52' W 016°35'5 9.2
2018-Mar-29 17:00N 08°54' W 016°39'9 9.2
2018-Mar-29 16:04N 08°59' W 016°46'1 9.1
2018-Mar-29 16:00N 08°59' W 016°46'116 8.7
2018-Mar-29 02:42N 10°18' W 018°13'19 9.6
2018-Mar-29 00:44N 10°37' W 018°13'71 9.5
2018-Mar-28 17:18N 11°47' W 018°13'3 9.4
2018-Mar-28 17:00N 11°50' W 018°13'5 9.6
2018-Mar-28 16:30N 11°55' W 018°13'5 9.5
2018-Mar-28 16:00N 11°60' W 018°13'5 9.4
2018-Mar-28 15:28N 12°04' W 018°13'56 9.6
2018-Mar-28 09:40N 13°00' W 018°13'2 9.5
2018-Mar-28 09:28N 13°02' W 018°13'89 9.5
2018-Mar-28 00:03N 14°31' W 018°13'7 9.9
2018-Mar-27 23:23N 14°38' W 018°13'8 9.8
2018-Mar-27 22:32N 14°46' W 018°13'0 9.8
2018-Mar-27 22:30N 14°46' W 018°13'81 9.9
2018-Mar-27 14:17N 16°08' W 018°13'  
2018-Mar-23 23:03N 28°34' W 013°25'110.1
2018-Mar-23 22:59N 28°34' W 013°25'610.2
2018-Mar-23 22:23N 28°40' W 013°22'410.2
2018-Mar-23 22:00N 28°44' W 013°20'510.2
2018-Mar-23 21:30N 28°48' W 013°18'510.1
2018-Mar-23 21:00N 28°53' W 013°15'5 9.9
2018-Mar-23 20:30N 28°57' W 013°13'6 9.9
2018-Mar-23 19:57N 29°02' W 013°10'  
2018-Mar-21 09:20N 37°41' W 009°24'4 9.1
2018-Mar-21 08:55N 37°44' W 009°22'4 9.1
2018-Mar-21 08:29N 37°48' W 009°20'4 8.8
2018-Mar-21 08:00N 37°52' W 009°17'4 8.8
2018-Mar-21 07:30N 37°56' W 009°16'5 9.2
2018-Mar-21 07:00N 38°00' W 009°14'5 9.3
2018-Mar-21 06:30N 38°05' W 009°12'5 9.2
2018-Mar-21 06:00N 38°09' W 009°10'5 9.2
2018-Mar-21 05:30N 38°13' W 009°08'5 9.4
2018-Mar-21 05:00N 38°17' W 009°05'5 9.2
2018-Mar-21 04:30N 38°21' W 009°02'5 9.6
2018-Mar-21 04:00N 38°26' W 008°59'4 7.7
2018-Mar-21 03:30N 38°29' W 008°56'4 6.8
2018-Mar-21 02:59N 38°31' W 008°53'0 0.1
2018-Mar-21 00:45N 38°31' W 008°53'0 0.0
2018-Mar-21 00:27N 38°31' W 008°53'0 0.0
2018-Mar-20 23:18N 38°31' W 008°53'0 0.0
2018-Mar-20 21:12N 38°31' W 008°53'0 0.0
2018-Mar-20 20:00N 38°31' W 008°53'0 0.0
2018-Mar-20 14:30N 38°31' W 008°53'0 0.0
2018-Mar-20 13:56N 38°31' W 008°53'0 0.8
2018-Mar-20 13:28N 38°31' W 008°53'4 7.3
2018-Mar-20 12:58N 38°29' W 008°57'4 7.6
2018-Mar-20 12:30N 38°26' W 008°59'4 8.2
2018-Mar-20 12:00N 38°22' W 008°60'4 8.4
2018-Mar-20 11:30N 38°17' W 009°01'4 8.4
2018-Mar-20 11:00N 38°13' W 009°02'4 7.8
2018-Mar-20 10:30N 38°10' W 009°03'4 7.7
2018-Mar-20 10:00N 38°06' W 009°04'4 7.5
2018-Mar-20 09:30N 38°02' W 009°05'4 7.4
2018-Mar-20 09:00N 37°59' W 009°07'4 7.5
2018-Mar-20 08:30N 37°55' W 009°09'4 7.3
2018-Mar-20 08:00N 37°52' W 009°10'3 7.0
2018-Mar-20 07:31N 37°49' W 009°12'3 6.8
2018-Mar-20 07:00N 37°45' W 009°10'3 7.0
2018-Mar-20 06:30N 37°42' W 009°10'3 7.0
2018-Mar-20 06:00N 37°39' W 009°10'3 6.9
2018-Mar-20 05:30N 37°35' W 009°11'  
Track history (hours):
 
Tides and Currents Weather Stations Pressure Air Temp Water Temp Dewpoint Dewpoint Depression Visibility Wind Speed Wind Dir Waves Ship Positions

Rio Congue

Last reported at 2018-Mar-30 04:57 UTC. Time now 2018-Apr-26 23:07 UTC.
Position N 07°54' W 015°06'.
Warning: this ship's position is 27 days out of date.

Length 135 m; draft 7.2 m.

Type: Cargo ship. MMSI: 616905000.

Date/timePositionNaut miles runAvg speedWind from/ knotsBaromVisibWave heightAir tempDewpointWater temp
2018-Mar-30 04:57N 07°54' W 015°06'4 9.2
2018-Mar-30 04:30N 07°56' W 015°09'5 9.1
2018-Mar-30 04:00N 07°59' W 015°13'6 9.1
2018-Mar-30 03:23N 08°02' W 015°18'4 9.4
2018-Mar-30 03:00N 08°04' W 015°21'5 9.3
2018-Mar-30 02:30N 08°06' W 015°25'13 9.0
2018-Mar-30 01:04N 08°14' W 015°36'1 8.7
2018-Mar-30 00:58N 08°14' W 015°37'21 9.2
2018-Mar-29 22:43N 08°25' W 015°54'3 9.3
2018-Mar-29 22:26N 08°27' W 015°56'4 9.2
2018-Mar-29 21:58N 08°29' W 015°60'4 9.1
2018-Mar-29 21:30N 08°32' W 016°03'4 8.9
2018-Mar-29 21:00N 08°34' W 016°07'5 9.1
2018-Mar-29 20:30N 08°36' W 016°11'5 9.1
2018-Mar-29 20:00N 08°39' W 016°15'5 9.4
2018-Mar-29 19:30N 08°41' W 016°19'5 9.4
2018-Mar-29 19:00N 08°44' W 016°23'5 9.5
2018-Mar-29 18:30N 08°47' W 016°27'5 9.4
2018-Mar-29 18:00N 08°50' W 016°31'5 9.3
2018-Mar-29 17:30N 08°52' W 016°35'5 9.2
2018-Mar-29 17:00N 08°54' W 016°39'9 9.2
2018-Mar-29 16:04N 08°59' W 016°46'1 9.1
2018-Mar-29 16:00N 08°59' W 016°46'116 8.7
2018-Mar-29 02:42N 10°18' W 018°13'19 9.6
2018-Mar-29 00:44N 10°37' W 018°13'71 9.5
2018-Mar-28 17:18N 11°47' W 018°13'3 9.4
2018-Mar-28 17:00N 11°50' W 018°13'5 9.6
2018-Mar-28 16:30N 11°55' W 018°13'5 9.5
2018-Mar-28 16:00N 11°60' W 018°13'5 9.4
2018-Mar-28 15:28N 12°04' W 018°13'56 9.6
2018-Mar-28 09:40N 13°00' W 018°13'2 9.5
2018-Mar-28 09:28N 13°02' W 018°13'89 9.5
2018-Mar-28 00:03N 14°31' W 018°13'7 9.9
2018-Mar-27 23:23N 14°38' W 018°13'8 9.8
2018-Mar-27 22:32N 14°46' W 018°13'0 9.8
2018-Mar-27 22:30N 14°46' W 018°13'81 9.9
2018-Mar-27 14:17N 16°08' W 018°13'  
2018-Mar-23 23:03N 28°34' W 013°25'110.1
2018-Mar-23 22:59N 28°34' W 013°25'610.2
2018-Mar-23 22:23N 28°40' W 013°22'410.2
2018-Mar-23 22:00N 28°44' W 013°20'510.2
2018-Mar-23 21:30N 28°48' W 013°18'510.1
2018-Mar-23 21:00N 28°53' W 013°15'5 9.9
2018-Mar-23 20:30N 28°57' W 013°13'6 9.9
2018-Mar-23 19:57N 29°02' W 013°10'  
2018-Mar-21 09:20N 37°41' W 009°24'4 9.1
2018-Mar-21 08:55N 37°44' W 009°22'4 9.1
2018-Mar-21 08:29N 37°48' W 009°20'4 8.8
2018-Mar-21 08:00N 37°52' W 009°17'4 8.8
2018-Mar-21 07:30N 37°56' W 009°16'5 9.2
2018-Mar-21 07:00N 38°00' W 009°14'5 9.3
2018-Mar-21 06:30N 38°05' W 009°12'5 9.2
2018-Mar-21 06:00N 38°09' W 009°10'5 9.2
2018-Mar-21 05:30N 38°13' W 009°08'5 9.4
2018-Mar-21 05:00N 38°17' W 009°05'5 9.2
2018-Mar-21 04:30N 38°21' W 009°02'5 9.6
2018-Mar-21 04:00N 38°26' W 008°59'4 7.7
2018-Mar-21 03:30N 38°29' W 008°56'4 6.8
2018-Mar-21 02:59N 38°31' W 008°53'0 0.1
2018-Mar-21 00:45N 38°31' W 008°53'0 0.0
2018-Mar-21 00:27N 38°31' W 008°53'0 0.0
2018-Mar-20 23:18N 38°31' W 008°53'0 0.0
2018-Mar-20 21:12N 38°31' W 008°53'0 0.0
2018-Mar-20 20:00N 38°31' W 008°53'0 0.0
2018-Mar-20 14:30N 38°31' W 008°53'0 0.0
2018-Mar-20 13:56N 38°31' W 008°53'0 0.8
2018-Mar-20 13:28N 38°31' W 008°53'4 7.3
2018-Mar-20 12:58N 38°29' W 008°57'4 7.6
2018-Mar-20 12:30N 38°26' W 008°59'4 8.2
2018-Mar-20 12:00N 38°22' W 008°60'4 8.4
2018-Mar-20 11:30N 38°17' W 009°01'4 8.4
2018-Mar-20 11:00N 38°13' W 009°02'4 7.8
2018-Mar-20 10:30N 38°10' W 009°03'4 7.7
2018-Mar-20 10:00N 38°06' W 009°04'4 7.5
2018-Mar-20 09:30N 38°02' W 009°05'4 7.4
2018-Mar-20 09:00N 37°59' W 009°07'4 7.5
2018-Mar-20 08:30N 37°55' W 009°09'4 7.3
2018-Mar-20 08:00N 37°52' W 009°10'3 7.0
2018-Mar-20 07:31N 37°49' W 009°12'3 6.8
2018-Mar-20 07:00N 37°45' W 009°10'3 7.0
2018-Mar-20 06:30N 37°42' W 009°10'3 7.0
2018-Mar-20 06:00N 37°39' W 009°10'3 6.9
2018-Mar-20 05:30N 37°35' W 009°11'  

Dump ship's entire track history